createdAt,value
2023-05-20T00:01:53.851Z,12.70
2023-05-20T00:04:21.389Z,12.60
2023-05-20T00:06:48.675Z,12.70
2023-05-20T00:09:17.553Z,12.60
2023-05-20T00:11:46.018Z,12.60
2023-05-20T00:14:13.275Z,12.60
2023-05-20T00:16:40.702Z,12.70
2023-05-20T00:19:08.216Z,12.70
2023-05-20T00:21:35.796Z,12.70
2023-05-20T00:24:03.513Z,12.70
2023-05-20T00:26:31.123Z,12.70
2023-05-20T00:28:58.278Z,12.60
2023-05-20T00:31:25.769Z,12.60
2023-05-20T00:33:52.907Z,12.60
2023-05-20T00:36:20.103Z,12.60
2023-05-20T00:38:47.458Z,12.60
2023-05-20T00:41:14.741Z,12.60
2023-05-20T00:43:41.891Z,12.60
2023-05-20T00:46:09.320Z,12.70
2023-05-20T00:48:41.956Z,12.70
2023-05-20T00:51:09.863Z,12.70
2023-05-20T00:53:37.646Z,12.60
2023-05-20T00:56:06.146Z,12.60
2023-05-20T00:58:33.592Z,12.50
2023-05-20T01:01:01.066Z,12.50
2023-05-20T01:03:29.750Z,12.50
2023-05-20T01:05:57.322Z,12.50
2023-05-20T01:08:26.077Z,12.50
2023-05-20T01:11:05.043Z,12.50
2023-05-20T01:13:42.199Z,12.50
2023-05-20T01:16:12.038Z,12.50
2023-05-20T01:18:42.181Z,12.50
2023-05-20T01:21:14.223Z,12.50
2023-05-20T01:23:42.581Z,12.50
2023-05-20T01:26:16.691Z,12.50
2023-05-20T01:28:44.029Z,12.50
2023-05-20T01:31:34.163Z,12.40
2023-05-20T01:34:01.783Z,12.50
2023-05-20T01:36:29.911Z,12.50
2023-05-20T01:38:58.368Z,12.50
2023-05-20T01:41:27.152Z,12.50
2023-05-20T01:43:55.609Z,12.50
2023-05-20T01:46:23.051Z,12.50
2023-05-20T01:48:50.332Z,12.40
2023-05-20T01:51:18.068Z,12.40
2023-05-20T01:53:46.193Z,12.40
2023-05-20T01:56:13.489Z,12.40
2023-05-20T01:58:41.008Z,12.30
2023-05-20T02:01:08.929Z,12.40
2023-05-20T02:03:36.426Z,12.30
2023-05-20T02:06:04.090Z,12.40
2023-05-20T02:08:31.458Z,12.30
2023-05-20T02:10:58.751Z,12.30
2023-05-20T02:13:26.135Z,12.30
2023-05-20T02:15:53.498Z,12.40
2023-05-20T02:18:20.841Z,12.40
2023-05-20T02:20:48.049Z,12.40
2023-05-20T02:23:15.643Z,12.40
2023-05-20T02:25:43.602Z,12.40
2023-05-20T02:28:13.507Z,12.40
2023-05-20T02:30:40.980Z,12.40
2023-05-20T02:33:10.066Z,12.30
2023-05-20T02:35:37.356Z,12.40
2023-05-20T02:38:04.581Z,12.40
2023-05-20T02:40:32.138Z,12.40
2023-05-20T02:43:00.198Z,12.30
2023-05-20T02:45:27.748Z,12.30
2023-05-20T02:47:55.022Z,12.30
2023-05-20T02:50:22.487Z,12.30
2023-05-20T02:52:50.156Z,12.30
2023-05-20T02:55:17.592Z,12.30
2023-05-20T02:57:45.721Z,12.30
2023-05-20T03:00:16.893Z,12.30
2023-05-20T03:02:45.113Z,12.30
2023-05-20T03:05:12.870Z,12.30
2023-05-20T03:07:40.482Z,12.30
2023-05-20T03:10:09.702Z,12.30
2023-05-20T03:12:36.897Z,12.30
2023-05-20T03:15:04.412Z,12.40
2023-05-20T03:17:31.697Z,12.40
2023-05-20T03:19:59.136Z,12.40
2023-05-20T03:22:26.377Z,12.40
2023-05-20T03:24:53.689Z,12.30
2023-05-20T03:27:21.684Z,12.30
2023-05-20T03:29:49.382Z,12.20
2023-05-20T03:32:16.950Z,12.20
2023-05-20T03:34:44.421Z,12.20
2023-05-20T03:37:11.823Z,12.20
2023-05-20T03:39:38.983Z,12.30
2023-05-20T03:42:06.985Z,12.20
2023-05-20T03:44:34.207Z,12.20
2023-05-20T03:47:01.471Z,12.20
2023-05-20T03:49:28.726Z,12.20
2023-05-20T03:51:56.197Z,12.30
2023-05-20T03:54:23.426Z,12.20
2023-05-20T03:56:52.094Z,12.20
2023-05-20T03:59:19.881Z,12.20
2023-05-20T04:01:47.226Z,12.20
2023-05-20T04:04:14.560Z,12.20
2023-05-20T04:06:41.921Z,12.30
2023-05-20T04:09:09.695Z,12.30
2023-05-20T04:11:37.441Z,12.30
2023-05-20T04:14:04.676Z,12.30
2023-05-20T04:16:31.947Z,12.40
2023-05-20T04:19:00.486Z,12.40
2023-05-20T04:21:27.771Z,12.40
2023-05-20T04:23:54.990Z,12.40
2023-05-20T04:26:22.901Z,12.40
2023-05-20T04:28:50.431Z,12.40
2023-05-20T04:31:18.813Z,12.40
2023-05-20T04:33:46.915Z,12.50
2023-05-20T04:36:16.926Z,12.40
2023-05-20T04:38:44.950Z,12.40
2023-05-20T04:41:12.289Z,12.40
2023-05-20T04:43:40.502Z,12.40
2023-05-20T04:46:07.945Z,12.50
2023-05-20T04:48:35.443Z,12.50
2023-05-20T04:51:03.422Z,12.60
2023-05-20T04:53:34.174Z,12.50
2023-05-20T04:56:01.623Z,12.60
2023-05-20T04:58:29.919Z,12.60
2023-05-20T05:00:57.183Z,12.60
2023-05-20T05:03:24.790Z,12.60
2023-05-20T05:05:56.954Z,12.70
2023-05-20T05:08:24.245Z,12.70
2023-05-20T05:10:51.596Z,12.70
2023-05-20T05:13:19.306Z,12.60
2023-05-20T05:15:46.646Z,12.70
2023-05-20T05:18:14.377Z,12.70
2023-05-20T05:20:41.883Z,12.70
2023-05-20T05:23:09.167Z,12.70
2023-05-20T05:25:36.470Z,12.70
2023-05-20T05:28:04.761Z,12.70
2023-05-20T05:30:32.640Z,12.70
2023-05-20T05:32:59.886Z,12.70
2023-05-20T05:35:27.142Z,12.70
2023-05-20T05:37:54.449Z,12.70
2023-05-20T05:40:21.740Z,12.70
2023-05-20T05:42:48.914Z,12.70
2023-05-20T05:45:18.672Z,12.70
2023-05-20T05:47:46.516Z,12.70
2023-05-20T05:50:13.890Z,12.70
2023-05-20T05:52:41.639Z,12.70
2023-05-20T05:55:10.249Z,12.60
2023-05-20T05:57:37.402Z,12.60
2023-05-20T06:00:05.754Z,12.60
2023-05-20T06:02:36.499Z,12.70
2023-05-20T06:05:04.679Z,12.70
2023-05-20T06:07:32.194Z,12.70
2023-05-20T06:09:59.742Z,12.80
2023-05-20T06:12:27.203Z,12.80
2023-05-20T06:14:54.557Z,12.80
2023-05-20T06:17:21.756Z,12.90
2023-05-20T06:19:52.085Z,12.80
2023-05-20T06:22:19.382Z,12.80
2023-05-20T06:24:46.781Z,12.90
2023-05-20T06:27:16.723Z,12.90
2023-05-20T06:29:44.147Z,12.90
2023-05-20T06:32:11.410Z,12.90
2023-05-20T06:34:39.350Z,13.00
2023-05-20T06:37:06.725Z,13.10
2023-05-20T06:39:33.868Z,13.00
2023-05-20T06:42:01.076Z,13.00
2023-05-20T06:44:28.305Z,13.00
2023-05-20T06:46:55.580Z,13.00
2023-05-20T06:49:24.318Z,13.00
2023-05-20T06:51:51.975Z,13.00
2023-05-20T06:54:19.615Z,13.00
2023-05-20T06:56:47.608Z,13.00
2023-05-20T06:59:14.747Z,13.10
2023-05-20T07:01:42.120Z,13.00
2023-05-20T07:04:09.495Z,13.10
2023-05-20T07:06:36.723Z,13.10
2023-05-20T07:09:05.643Z,13.20
2023-05-20T07:11:34.947Z,13.20
2023-05-20T07:14:02.168Z,13.30
2023-05-20T07:16:29.830Z,13.30
2023-05-20T07:18:57.113Z,13.40
2023-05-20T07:21:24.337Z,13.40
2023-05-20T07:23:51.594Z,13.40
2023-05-20T07:26:19.034Z,13.40
2023-05-20T07:28:47.399Z,13.50
2023-05-20T07:31:15.182Z,13.40
2023-05-20T07:33:42.475Z,13.40
2023-05-20T07:36:11.307Z,13.40
2023-05-20T07:38:41.016Z,13.40
2023-05-20T07:41:09.032Z,13.30
2023-05-20T07:43:36.427Z,13.40
2023-05-20T07:46:04.044Z,13.30
2023-05-20T07:48:31.844Z,13.40
2023-05-20T07:50:59.968Z,13.40
2023-05-20T07:53:27.534Z,13.40
2023-05-20T07:55:54.853Z,13.40
2023-05-20T07:58:22.165Z,13.50
2023-05-20T08:00:49.631Z,13.50
2023-05-20T08:03:17.731Z,13.50
2023-05-20T08:05:45.516Z,13.50
2023-05-20T08:08:12.730Z,13.50
2023-05-20T08:10:40.054Z,13.50
2023-05-20T08:13:07.634Z,13.50
2023-05-20T08:15:36.764Z,13.60
2023-05-20T08:18:04.042Z,13.70
2023-05-20T08:20:32.324Z,13.70
2023-05-20T08:22:59.627Z,13.70
2023-05-20T08:25:26.843Z,13.80
2023-05-20T08:27:54.128Z,13.90
2023-05-20T08:30:21.554Z,13.90
2023-05-20T08:32:51.158Z,14.00
2023-05-20T08:35:18.594Z,13.90
2023-05-20T08:37:45.987Z,14.00
2023-05-20T08:40:14.019Z,14.00
2023-05-20T08:42:45.039Z,14.00
2023-05-20T08:45:13.490Z,14.10
2023-05-20T08:47:43.575Z,14.10
2023-05-20T08:50:18.032Z,14.20
2023-05-20T08:52:47.347Z,14.30
2023-05-20T08:56:00.860Z,14.40
2023-05-20T08:58:32.970Z,14.50
2023-05-20T09:01:01.225Z,14.60
2023-05-20T09:03:29.300Z,14.70
2023-05-20T09:06:05.842Z,14.70
2023-05-20T09:08:34.471Z,14.80
2023-05-20T09:11:01.701Z,14.90
2023-05-20T09:13:31.928Z,14.90
2023-05-20T09:16:02.306Z,14.90
2023-05-20T09:18:33.138Z,14.90
2023-05-20T09:21:07.257Z,14.90
2023-05-20T09:23:38.854Z,14.90
2023-05-20T09:26:06.382Z,15.00
2023-05-20T09:28:34.134Z,15.10
2023-05-20T09:31:02.358Z,15.20
2023-05-20T09:33:30.799Z,15.20
2023-05-20T09:36:06.530Z,15.30
2023-05-20T09:38:39.149Z,15.40
2023-05-20T09:41:14.245Z,15.50
2023-05-20T09:43:42.676Z,15.50
2023-05-20T09:46:11.088Z,15.60
2023-05-20T09:48:38.810Z,15.80
2023-05-20T09:51:08.273Z,15.90
2023-05-20T09:53:36.476Z,15.90
2023-05-20T09:56:04.445Z,15.90
2023-05-20T09:58:34.029Z,16.10
2023-05-20T10:01:01.535Z,16.10
2023-05-20T10:03:29.655Z,16.20
2023-05-20T10:06:21.281Z,16.30
2023-05-20T10:09:41.416Z,16.30
2023-05-20T10:12:36.073Z,16.40
2023-05-20T10:15:23.026Z,16.50
2023-05-20T10:18:08.675Z,16.50
2023-05-20T10:20:56.192Z,16.60
2023-05-20T10:23:25.212Z,16.60
2023-05-20T10:25:54.113Z,16.70
2023-05-20T10:28:31.368Z,16.70
2023-05-20T10:30:59.903Z,16.90
2023-05-20T10:33:30.552Z,16.90
2023-05-20T10:36:01.397Z,16.90
2023-05-20T10:38:28.696Z,17.00
2023-05-20T10:40:57.742Z,17.10
2023-05-20T10:43:29.213Z,17.30
2023-05-20T10:45:58.571Z,17.20
2023-05-20T10:48:28.509Z,17.20
2023-05-20T10:51:00.545Z,17.40
2023-05-20T10:53:33.930Z,17.40
2023-05-20T10:56:03.017Z,17.40
2023-05-20T10:58:38.972Z,17.50
2023-05-20T11:01:06.856Z,17.60
2023-05-20T11:03:36.390Z,17.60
2023-05-20T11:06:12.502Z,17.60
2023-05-20T11:08:39.944Z,17.60
2023-05-20T11:11:07.549Z,17.60
2023-05-20T11:13:34.932Z,17.70
2023-05-20T11:16:03.681Z,17.80
2023-05-20T11:18:32.424Z,17.80
2023-05-20T11:21:02.932Z,17.90
2023-05-20T11:23:30.985Z,18.10
2023-05-20T11:25:58.751Z,18.30
2023-05-20T11:28:26.130Z,18.50
2023-05-20T11:30:54.100Z,18.50
2023-05-20T11:33:21.671Z,18.60
2023-05-20T11:35:51.028Z,18.60
2023-05-20T11:38:19.351Z,18.70
2023-05-20T11:40:52.206Z,19.30
2023-05-20T11:43:20.625Z,20.00
2023-05-20T11:45:53.363Z,20.40
2023-05-20T11:48:21.067Z,20.60
2023-05-20T11:50:53.791Z,20.40
2023-05-20T11:53:23.007Z,20.10
2023-05-20T11:55:53.100Z,20.00
2023-05-20T11:58:25.840Z,20.10
2023-05-20T12:01:01.893Z,20.40
2023-05-20T12:03:33.461Z,20.60
2023-05-20T12:06:04.860Z,21.00
2023-05-20T12:08:32.098Z,21.40
2023-05-20T12:10:59.480Z,21.50
2023-05-20T12:13:26.827Z,21.70
2023-05-20T12:15:53.984Z,21.90
2023-05-20T12:18:21.483Z,22.10
2023-05-20T12:20:48.741Z,22.20
2023-05-20T12:23:16.297Z,22.10
2023-05-20T12:25:44.145Z,22.10
2023-05-20T12:28:11.266Z,22.10
2023-05-20T12:30:38.613Z,21.90
2023-05-20T12:33:06.803Z,21.80
2023-05-20T12:35:39.121Z,21.50
2023-05-20T12:38:07.160Z,21.40
2023-05-20T12:40:35.755Z,21.50
2023-05-20T12:43:04.925Z,21.50
2023-05-20T12:45:32.935Z,21.80
2023-05-20T12:48:01.217Z,22.20
2023-05-20T12:50:29.254Z,22.50
2023-05-20T12:53:01.240Z,22.60
2023-05-20T12:55:30.002Z,22.70
2023-05-20T12:57:57.825Z,22.80
2023-05-20T13:00:26.098Z,23.00
2023-05-20T13:02:55.090Z,23.10
2023-05-20T13:05:22.994Z,23.20
2023-05-20T13:07:50.400Z,23.40
2023-05-20T13:10:18.317Z,23.60
2023-05-20T13:12:46.468Z,23.60
2023-05-20T13:15:15.124Z,23.40
2023-05-20T13:17:43.362Z,23.20
2023-05-20T13:20:11.405Z,23.00
2023-05-20T13:22:38.990Z,23.00
2023-05-20T13:25:06.956Z,22.90
2023-05-20T13:27:34.216Z,23.20
2023-05-20T13:30:02.168Z,23.20
2023-05-20T13:32:39.840Z,23.30
2023-05-20T13:35:07.836Z,23.50
2023-05-20T13:37:35.113Z,23.70
2023-05-20T13:40:02.289Z,23.80
2023-05-20T13:42:34.810Z,23.70
2023-05-20T13:45:02.056Z,23.60
2023-05-20T13:47:29.365Z,23.50
2023-05-20T13:49:56.930Z,23.60
2023-05-20T13:52:24.632Z,23.70
2023-05-20T13:54:51.832Z,23.80
2023-05-20T13:57:19.111Z,23.60
2023-05-20T13:59:46.450Z,23.50
2023-05-20T14:02:16.025Z,23.10
2023-05-20T14:04:45.537Z,22.90
2023-05-20T14:07:13.272Z,23.00
2023-05-20T14:09:40.583Z,22.90
2023-05-20T14:12:08.374Z,22.80
2023-05-20T14:14:35.904Z,22.80
2023-05-20T14:17:03.178Z,22.80
2023-05-20T14:19:30.546Z,22.80
2023-05-20T14:22:03.366Z,23.00
2023-05-20T14:24:30.960Z,23.10
2023-05-20T14:26:58.221Z,23.20
2023-05-20T14:29:25.463Z,23.30
2023-05-20T14:31:53.107Z,23.40
2023-05-20T14:34:21.534Z,23.40
2023-05-20T14:36:48.887Z,23.40
2023-05-20T14:39:17.390Z,23.40
2023-05-20T14:41:44.840Z,23.30
2023-05-20T14:44:12.033Z,23.30
2023-05-20T14:46:39.458Z,23.30
2023-05-20T14:49:06.686Z,23.40
2023-05-20T14:51:33.916Z,23.40
2023-05-20T14:54:01.270Z,23.30
2023-05-20T14:56:28.743Z,23.30
2023-05-20T14:58:56.311Z,23.40
2023-05-20T15:01:23.576Z,23.40
2023-05-20T15:03:51.300Z,23.50
2023-05-20T15:06:19.321Z,23.50
2023-05-20T15:08:47.086Z,23.40
2023-05-20T15:11:14.748Z,23.50
2023-05-20T15:13:42.123Z,23.50
2023-05-20T15:16:09.820Z,23.60
2023-05-20T15:18:37.038Z,23.50
2023-05-20T15:21:05.227Z,23.40
2023-05-20T15:23:32.390Z,23.40
2023-05-20T15:26:00.030Z,23.50
2023-05-20T15:28:27.465Z,23.40
2023-05-20T15:30:56.557Z,23.30
2023-05-20T15:33:24.267Z,23.30
2023-05-20T15:35:52.040Z,23.20
2023-05-20T15:38:19.361Z,23.20
2023-05-20T15:40:47.654Z,23.30
2023-05-20T15:43:14.922Z,23.20
2023-05-20T15:45:42.221Z,23.30
2023-05-20T15:48:09.679Z,23.30
2023-05-20T15:50:37.491Z,23.30
2023-05-20T15:53:08.866Z,23.40
2023-05-20T15:55:36.846Z,23.40
2023-05-20T15:58:04.572Z,23.40
2023-05-20T16:00:32.567Z,23.20
2023-05-20T16:03:00.051Z,23.00
2023-05-20T16:05:27.698Z,23.00
2023-05-20T16:07:55.634Z,22.90
2023-05-20T16:10:25.280Z,22.80
2023-05-20T16:12:53.818Z,22.80
2023-05-20T16:15:21.203Z,22.80
2023-05-20T16:17:48.830Z,22.70
2023-05-20T16:20:16.581Z,22.70
2023-05-20T16:22:43.862Z,22.60
2023-05-20T16:25:14.790Z,22.60
2023-05-20T16:27:42.075Z,22.60
2023-05-20T16:30:10.278Z,22.50
2023-05-20T16:32:37.486Z,22.60
2023-05-20T16:35:05.964Z,22.60
2023-05-20T16:37:33.302Z,22.70
2023-05-20T16:40:00.940Z,22.80
2023-05-20T16:42:28.314Z,22.80
2023-05-20T16:44:55.594Z,22.80
2023-05-20T16:47:22.885Z,22.80
2023-05-20T16:49:50.290Z,22.80
2023-05-20T16:52:23.675Z,22.80
2023-05-20T16:54:52.611Z,22.80
2023-05-20T16:57:19.860Z,22.70
2023-05-20T16:59:47.659Z,22.70
2023-05-20T17:02:18.202Z,22.60
2023-05-20T17:04:45.503Z,22.60
2023-05-20T17:07:14.304Z,22.60
2023-05-20T17:09:41.639Z,22.50
2023-05-20T17:12:08.884Z,22.50
2023-05-20T17:14:37.550Z,22.40
2023-05-20T17:17:05.581Z,22.40
2023-05-20T17:19:32.887Z,22.40
2023-05-20T17:22:00.699Z,22.40
2023-05-20T17:24:27.885Z,22.30
2023-05-20T17:26:55.265Z,22.30
2023-05-20T17:29:22.777Z,22.20
2023-05-20T17:31:50.132Z,22.10
2023-05-20T17:34:17.445Z,22.10
2023-05-20T17:36:44.817Z,22.00
2023-05-20T17:39:12.586Z,21.90
2023-05-20T17:41:41.345Z,21.80
2023-05-20T17:44:10.190Z,21.70
2023-05-20T17:46:37.500Z,21.60
2023-05-20T17:49:05.101Z,21.40
2023-05-20T17:51:33.256Z,21.30
2023-05-20T17:54:00.810Z,21.20
2023-05-20T17:56:28.158Z,21.10
2023-05-20T17:58:56.247Z,21.10
2023-05-20T18:01:23.913Z,21.10
2023-05-20T18:03:51.544Z,20.80
2023-05-20T18:06:19.000Z,20.60
2023-05-20T18:08:46.178Z,20.20
2023-05-20T18:11:13.414Z,19.90
2023-05-20T18:13:41.229Z,19.70
2023-05-20T18:16:08.624Z,19.50
2023-05-20T18:18:35.908Z,19.40
2023-05-20T18:21:06.259Z,19.30
2023-05-20T18:23:33.659Z,19.20
2023-05-20T18:26:01.799Z,19.10
2023-05-20T18:28:28.974Z,19.10
2023-05-20T18:30:58.041Z,19.00
2023-05-20T18:33:25.360Z,19.00
2023-05-20T18:35:54.829Z,18.90
2023-05-20T18:38:22.370Z,18.80
2023-05-20T18:40:49.882Z,18.70
2023-05-20T18:43:17.499Z,18.60
2023-05-20T18:45:45.636Z,18.50
2023-05-20T18:48:20.203Z,18.50
2023-05-20T18:50:53.926Z,18.40
2023-05-20T18:53:21.156Z,18.30
2023-05-20T18:55:48.947Z,18.30
2023-05-20T18:58:16.780Z,18.20
2023-05-20T19:00:44.062Z,18.20
2023-05-20T19:03:11.805Z,18.10
2023-05-20T19:05:39.687Z,18.10
2023-05-20T19:08:07.294Z,18.00
2023-05-20T19:10:34.451Z,18.00
2023-05-20T19:13:01.722Z,17.90
2023-05-20T19:15:30.460Z,17.90
2023-05-20T19:17:57.709Z,17.90
2023-05-20T19:20:25.150Z,17.70
2023-05-20T19:22:52.783Z,17.60
2023-05-20T19:25:20.420Z,17.60
2023-05-20T19:27:47.719Z,17.50
2023-05-20T19:30:14.901Z,17.50
2023-05-20T19:32:42.254Z,17.40
2023-05-20T19:35:09.724Z,17.30
2023-05-20T19:37:36.916Z,17.30
2023-05-20T19:40:04.759Z,17.20
2023-05-20T19:42:32.278Z,17.10
2023-05-20T19:44:59.564Z,17.00
2023-05-20T19:47:27.145Z,16.90
2023-05-20T19:49:54.470Z,16.90
2023-05-20T19:52:21.639Z,16.80
2023-05-20T19:54:49.000Z,16.80
2023-05-20T19:57:16.604Z,16.70
2023-05-20T19:59:43.802Z,16.70
2023-05-20T20:02:11.256Z,16.60
2023-05-20T20:04:38.584Z,16.60
2023-05-20T20:07:07.771Z,16.60
2023-05-20T20:09:35.327Z,16.60
2023-05-20T20:12:03.096Z,16.50
2023-05-20T20:14:30.878Z,16.50
2023-05-20T20:16:59.978Z,16.40
2023-05-20T20:19:28.670Z,16.40
2023-05-20T20:21:56.955Z,16.30
2023-05-20T20:24:24.478Z,16.30
2023-05-20T20:26:54.515Z,16.30
2023-05-20T20:29:24.627Z,16.30
2023-05-20T20:31:52.596Z,16.20
2023-05-20T20:34:19.831Z,16.20
2023-05-20T20:36:47.638Z,16.20
2023-05-20T20:39:19.270Z,16.20
2023-05-20T20:41:50.462Z,16.20
2023-05-20T20:44:19.211Z,16.10
2023-05-20T20:46:46.915Z,15.90
2023-05-20T20:49:14.285Z,15.90
2023-05-20T20:51:41.976Z,15.80
2023-05-20T20:54:09.266Z,15.70
2023-05-20T20:56:37.424Z,15.70
2023-05-20T20:59:05.882Z,15.60
2023-05-20T21:01:36.617Z,15.60
2023-05-20T21:04:05.428Z,15.60
2023-05-20T21:06:33.208Z,15.50
2023-05-20T21:09:04.118Z,15.50
2023-05-20T21:11:31.552Z,15.50
2023-05-20T21:13:58.697Z,15.50
2023-05-20T21:16:28.357Z,15.50
2023-05-20T21:18:55.646Z,15.50
2023-05-20T21:21:22.860Z,15.50
2023-05-20T21:23:52.231Z,15.50
2023-05-20T21:26:21.652Z,15.50
2023-05-20T21:28:48.839Z,15.50
2023-05-20T21:31:16.283Z,15.40
2023-05-20T21:33:43.548Z,15.40
2023-05-20T21:36:10.824Z,15.40
2023-05-20T21:38:38.102Z,15.40
2023-05-20T21:41:05.477Z,15.40
2023-05-20T21:43:32.753Z,15.30
2023-05-20T21:45:59.981Z,15.30
2023-05-20T21:48:27.297Z,15.20
2023-05-20T21:50:54.442Z,15.20
2023-05-20T21:53:23.106Z,15.20
2023-05-20T21:55:50.766Z,15.20
2023-05-20T21:58:17.926Z,15.10
2023-05-20T22:00:45.604Z,15.10
2023-05-20T22:03:13.682Z,15.00
2023-05-20T22:05:46.045Z,14.90
2023-05-20T22:08:13.574Z,14.80
2023-05-20T22:10:41.060Z,14.70
2023-05-20T22:13:11.203Z,14.70
2023-05-20T22:15:38.354Z,14.60
2023-05-20T22:18:07.608Z,14.60
2023-05-20T22:20:35.482Z,14.60
2023-05-20T22:23:04.770Z,14.60
2023-05-20T22:25:32.551Z,14.60
2023-05-20T22:27:59.893Z,14.60
2023-05-20T22:30:27.127Z,14.60
2023-05-20T22:32:54.350Z,14.60
2023-05-20T22:35:22.507Z,14.60
2023-05-20T22:37:50.300Z,14.60
2023-05-20T22:40:17.845Z,14.60
2023-05-20T22:42:45.137Z,14.60
2023-05-20T22:45:12.384Z,14.50
2023-05-20T22:47:39.649Z,14.50
2023-05-20T22:50:08.081Z,14.40
2023-05-20T22:52:37.116Z,14.40
2023-05-20T22:55:04.711Z,14.40
2023-05-20T22:57:31.938Z,14.40
2023-05-20T22:59:59.300Z,14.40
2023-05-20T23:02:26.547Z,14.30
2023-05-20T23:04:53.767Z,14.30
2023-05-20T23:07:22.091Z,14.30
2023-05-20T23:09:49.447Z,14.20
2023-05-20T23:12:16.983Z,14.20
2023-05-20T23:14:44.165Z,14.20
2023-05-20T23:17:11.450Z,14.20
2023-05-20T23:19:38.779Z,14.10
2023-05-20T23:22:06.036Z,14.20
2023-05-20T23:24:33.232Z,14.20
2023-05-20T23:27:00.421Z,14.20
2023-05-20T23:29:27.683Z,14.10
2023-05-20T23:31:54.904Z,14.10
2023-05-20T23:34:22.192Z,14.00
2023-05-20T23:36:50.214Z,14.00
2023-05-20T23:39:18.451Z,14.00
2023-05-20T23:41:45.864Z,13.90
2023-05-20T23:44:13.103Z,13.90
2023-05-20T23:46:40.294Z,13.80
2023-05-20T23:49:07.538Z,13.80
2023-05-20T23:51:35.792Z,13.70
2023-05-20T23:54:02.950Z,13.70
2023-05-20T23:56:30.147Z,13.60
2023-05-20T23:58:58.160Z,13.60
